Time;durP1;ratioP1;P1;durP2;ratioP2;P2;SDS_P1;SDS_P2;PMS_P1;PMS_P2;Temp;Humidity;BMP_temperature;BMP_pressure;BME280_temperature;BME280_humidity;BME280_pressure;Samples;Min_cycle;Max_cycle;Signal;HPM_P1;HPM_P2
2021/09/13 00:00:15;;;;;;;;;;;;;;;22.08;58.62;101308.75;5078102;27;97304;-83
2021/09/13 00:02:42;;;;;;;;;;;;;;;22.13;58.30;101311.09;5076779;27;98125;-83
2021/09/13 00:05:09;;;;;;;;;;;;;;;22.06;58.60;101304.44;5080415;27;98881;-84
2021/09/13 00:07:35;;;;;;;;;;;;;;;22.02;58.41;101306.53;5075210;27;99170;-83
2021/09/13 00:10:03;;;;;;;;;;;;;;;22.03;58.28;101302.88;5079742;27;96985;-83
2021/09/13 00:12:30;;;;;;;;;;;;;;;22.04;58.28;101301.03;5075718;27;98055;-84
2021/09/13 00:14:58;;;;;;;;;;;;;;;21.91;58.72;101297.50;5082003;27;99270;-84
2021/09/13 00:17:24;;;;;;;;;;;;;;;21.99;58.27;101295.97;5092447;27;99104;-84
2021/09/13 00:19:51;;;;;;;;;;;;;;;21.91;58.36;101297.50;5084506;27;96813;-83
2021/09/13 00:22:17;;;;;;;;;;;;;;;21.92;58.40;101294.72;5084183;27;96750;-83
2021/09/13 00:24:44;;;;;;;;;;;;;;;21.90;58.17;101298.47;5086144;27;98608;-82
2021/09/13 00:27:12;;;;;;;;;;;;;;;21.87;58.35;101300.41;5093455;27;97676;-83
2021/09/13 00:29:39;;;;;;;;;;;;;;;21.92;58.32;101301.91;5086083;27;96927;-83
2021/09/13 00:32:16;;;;;;;;;;;;;;;21.88;58.46;101307.53;5085265;27;96790;-83
2021/09/13 00:34:42;;;;;;;;;;;;;;;21.63;58.93;101302.22;5088316;27;98860;-83
2021/09/13 00:37:09;;;;;;;;;;;;;;;21.63;58.71;101312.97;5078510;27;99073;-83
2021/09/13 00:39:35;;;;;;;;;;;;;;;21.72;58.63;101317.69;5080116;27;96767;-84
2021/09/13 00:42:02;;;;;;;;;;;;;;;21.56;58.97;101311.69;5083539;27;96686;-83
2021/09/13 00:44:29;;;;;;;;;;;;;;;21.41;59.43;101318.16;5066338;27;98856;-83
2021/09/13 00:46:56;;;;;;;;;;;;;;;21.50;59.35;101311.28;5093570;27;98027;-83
2021/09/13 00:49:25;;;;;;;;;;;;;;;21.52;59.26;101315.59;5080997;27;96779;-82
2021/09/13 00:54:54;;;;;;;;;;;;;;;21.34;59.63;101314.19;5078433;27;97094;-82
2021/09/13 00:57:20;;;;;;;;;;;;;;;21.40;59.73;101314.63;5072154;27;100347;-82
2021/09/13 00:59:47;;;;;;;;;;;;;;;21.44;59.34;101313.44;5075012;27;96775;-82
2021/09/13 01:02:13;;;;;;;;;;;;;;;21.56;58.97;101309.00;5088109;27;98604;-82
2021/09/13 01:04:41;;;;;;;;;;;;;;;21.50;58.99;101306.78;5077680;27;98006;-81
2021/09/13 01:07:07;;;;;;;;;;;;;;;21.40;59.21;101311.06;5079558;27;98359;-82
2021/09/13 01:09:34;;;;;;;;;;;;;;;21.47;58.86;101307.84;5080927;27;96978;-83
2021/09/13 01:12:00;;;;;;;;;;;;;;;21.54;58.82;101308.25;5083143;27;96811;-81
2021/09/13 01:14:33;;;;;;;;;;;;;;;21.43;59.26;101308.19;5084586;27;99086;-82
2021/09/13 01:17:00;;;;;;;;;;;;;;;21.40;59.39;101306.56;5083226;27;97878;-81
2021/09/13 01:19:26;;;;;;;;;;;;;;;21.39;59.58;101310.25;5076292;27;96724;-81
2021/09/13 01:21:55;;;;;;;;;;;;;;;21.40;59.34;101314.63;5079288;27;98569;-82
2021/09/13 01:24:23;;;;;;;;;;;;;;;21.46;58.71;101305.28;5078804;27;97801;-83
2021/09/13 01:26:49;;;;;;;;;;;;;;;21.41;59.06;101304.72;5068488;27;99161;-82
2021/09/13 01:29:15;;;;;;;;;;;;;;;21.42;58.63;101307.31;5092967;27;96954;-83
2021/09/13 01:31:42;;;;;;;;;;;;;;;21.29;59.06;101311.00;5076779;27;97761;-82
2021/09/13 01:34:08;;;;;;;;;;;;;;;21.30;59.17;101304.66;5085227;27;98827;-82
2021/09/13 01:36:35;;;;;;;;;;;;;;;21.11;59.50;101306.91;5082657;27;96934;-82
2021/09/13 01:42:06;;;;;;;;;;;;;;;21.30;58.92;101312.72;5081410;27;97160;-83
2021/09/13 01:44:32;;;;;;;;;;;;;;;21.43;58.62;101316.25;5067355;27;97891;-83
2021/09/13 01:46:58;;;;;;;;;;;;;;;21.39;58.57;101320.13;5098057;27;100114;-83
2021/09/13 01:49:25;;;;;;;;;;;;;;;21.42;58.60;101311.84;5096496;27;96590;-84
2021/09/13 01:51:51;;;;;;;;;;;;;;;21.37;58.46;101305.94;5099413;27;96746;-84
2021/09/13 01:54:18;;;;;;;;;;;;;;;21.17;58.99;101312.72;5080796;27;98312;-82
2021/09/13 01:56:44;;;;;;;;;;;;;;;21.09;58.88;101313.22;5079116;27;99199;-82
2021/09/13 01:59:12;;;;;;;;;;;;;;;21.17;58.94;101319.94;5082525;27;98668;-81
2021/09/13 02:01:38;;;;;;;;;;;;;;;21.03;58.91;101316.34;5088046;27;97327;-83
2021/09/13 02:04:09;;;;;;;;;;;;;;;21.07;58.82;101316.97;5085437;27;99505;-84
2021/09/13 02:06:37;;;;;;;;;;;;;;;21.18;58.52;101327.03;5086421;27;100253;-82
2021/09/13 02:09:04;;;;;;;;;;;;;;;21.07;58.75;101331.28;5083142;27;96762;-83
2021/09/13 02:11:30;;;;;;;;;;;;;;;21.06;58.79;101329.59;5080529;27;96811;-82
2021/09/13 02:13:57;;;;;;;;;;;;;;;21.07;58.74;101327.72;5082191;27;98183;-82
2021/09/13 02:16:24;;;;;;;;;;;;;;;21.08;58.78;101327.63;5077946;27;99060;-83
2021/09/13 02:18:51;;;;;;;;;;;;;;;21.14;58.64;101330.84;5083813;27;96714;-82
2021/09/13 02:21:17;;;;;;;;;;;;;;;21.04;58.97;101330.66;5081458;27;96967;-83
2021/09/13 02:26:46;;;;;;;;;;;;;;;21.05;58.85;101327.00;5067856;27;97528;-83
2021/09/13 02:29:13;;;;;;;;;;;;;;;21.05;58.62;101322.50;5073259;27;96949;-83
2021/09/13 02:31:40;;;;;;;;;;;;;;;21.05;58.59;101330.53;5066238;27;96946;-82
2021/09/13 02:34:07;;;;;;;;;;;;;;;20.91;58.47;101324.41;5065772;27;102204;-82
2021/09/13 02:36:33;;;;;;;;;;;;;;;21.00;58.42;101327.28;5064461;27;100797;-83
2021/09/13 02:38:59;;;;;;;;;;;;;;;21.04;58.22;101331.50;5070238;27;97140;-82
2021/09/13 02:41:26;;;;;;;;;;;;;;;21.04;57.87;101328.81;5065519;27;98794;-82
2021/09/13 02:43:52;;;;;;;;;;;;;;;21.03;58.23;101331.59;5063773;27;99532;-83
2021/09/13 02:46:20;;;;;;;;;;;;;;;20.96;58.50;101324.94;5066501;27;99280;-82
2021/09/13 02:48:48;;;;;;;;;;;;;;;20.89;59.28;101324.50;5063536;27;98898;-81
2021/09/13 02:51:14;;;;;;;;;;;;;;;20.83;59.20;101321.38;5062272;27;98449;-80
2021/09/13 02:53:40;;;;;;;;;;;;;;;20.81;59.22;101332.22;5061440;27;98861;-81
2021/09/13 02:56:07;;;;;;;;;;;;;;;20.77;59.16;101322.66;5063956;27;99439;-81
2021/09/13 02:58:33;;;;;;;;;;;;;;;20.69;59.53;101325.03;5062839;27;96841;-80
2021/09/13 03:01:02;;;;;;;;;;;;;;;20.73;59.32;101329.22;5065523;27;97368;-81
2021/09/13 03:03:29;;;;;;;;;;;;;;;20.76;59.20;101325.47;5094660;27;98886;-81
2021/09/13 03:05:56;;;;;;;;;;;;;;;20.38;59.87;101328.94;5078177;27;98013;-81
2021/09/13 03:08:23;;;;;;;;;;;;;;;20.68;59.02;101328.66;5067499;27;97666;-81
2021/09/13 03:10:50;;;;;;;;;;;;;;;20.81;58.65;101340.28;5077884;27;96876;-82
2021/09/13 03:13:19;;;;;;;;;;;;;;;20.69;58.71;101336.63;5060833;27;100568;-83
2021/09/13 03:15:46;;;;;;;;;;;;;;;20.65;59.07;101336.94;5069942;27;99252;-83
2021/09/13 03:18:18;;;;;;;;;;;;;;;20.64;59.31;101332.53;5087031;27;96894;-85
2021/09/13 03:20:44;;;;;;;;;;;;;;;20.53;59.68;101337.78;5077651;27;97637;-82
2021/09/13 03:23:12;;;;;;;;;;;;;;;20.47;59.91;101340.88;5083256;27;98121;-80
2021/09/13 03:25:38;;;;;;;;;;;;;;;20.45;59.70;101345.50;5074831;27;97728;-79
2021/09/13 03:28:05;;;;;;;;;;;;;;;20.46;59.87;101344.53;5083178;27;96862;-80
2021/09/13 03:30:31;;;;;;;;;;;;;;;20.44;59.72;101350.00;5099851;27;96859;-80
2021/09/13 03:32:57;;;;;;;;;;;;;;;20.46;59.55;101356.13;5082289;27;98276;-80
2021/09/13 03:35:24;;;;;;;;;;;;;;;20.27;60.52;101352.91;5076863;27;98767;-79
2021/09/13 03:37:50;;;;;;;;;;;;;;;20.30;60.30;101358.94;5080439;27;96860;-80
2021/09/13 03:40:18;;;;;;;;;;;;;;;20.49;59.73;101358.59;5082127;27;96925;-79
2021/09/13 03:42:44;;;;;;;;;;;;;;;19.97;60.72;101354.91;5082152;27;98304;-79
2021/09/13 03:45:10;;;;;;;;;;;;;;;20.42;60.15;101359.09;5072812;27;98776;-80
2021/09/13 03:47:37;;;;;;;;;;;;;;;20.56;59.48;101364.41;5088530;27;96642;-80
2021/09/13 03:50:04;;;;;;;;;;;;;;;20.60;59.39;101360.56;5097548;27;96802;-80
2021/09/13 03:52:30;;;;;;;;;;;;;;;20.63;58.96;101360.34;5092781;27;99257;-80
2021/09/13 03:54:56;;;;;;;;;;;;;;;20.85;57.98;101363.31;5097044;27;97302;-80
2021/09/13 03:57:24;;;;;;;;;;;;;;;20.63;58.32;101363.03;5094686;27;96882;-79
2021/09/13 03:59:50;;;;;;;;;;;;;;;20.48;58.79;101361.41;5090562;27;96621;-80
2021/09/13 04:02:16;;;;;;;;;;;;;;;20.50;58.73;101367.50;5095702;27;96777;-78
2021/09/13 04:04:48;;;;;;;;;;;;;;;20.61;57.58;101364.97;5095772;27;97670;-80
2021/09/13 04:07:18;;;;;;;;;;;;;;;20.40;57.72;101361.91;5087394;27;96640;-78
2021/09/13 04:09:51;;;;;;;;;;;;;;;20.51;57.41;101369.22;5082226;27;96593;-78
2021/09/13 04:12:17;;;;;;;;;;;;;;;20.26;58.16;101370.84;5082089;27;96965;-78
2021/09/13 04:14:45;;;;;;;;;;;;;;;20.38;57.59;101363.81;5092348;27;99149;-81
2021/09/13 04:17:11;;;;;;;;;;;;;;;20.33;57.40;101367.78;5091545;27;96828;-80
2021/09/13 04:19:37;;;;;;;;;;;;;;;19.94;58.39;101365.84;5088213;27;96859;-81
2021/09/13 04:22:04;;;;;;;;;;;;;;;19.92;58.55;101368.63;5094626;27;99336;-79
2021/09/13 04:24:30;;;;;;;;;;;;;;;20.24;57.71;101367.38;5092222;27;97825;-80
2021/09/13 04:26:56;;;;;;;;;;;;;;;19.48;60.07;101363.41;5100365;27;96630;-80
2021/09/13 04:29:23;;;;;;;;;;;;;;;19.78;58.66;101363.28;5099334;27;96792;-80
2021/09/13 04:34:41;;;;;;;;;;;;;;;20.08;57.50;101366.69;5085089;27;99885;-81
2021/09/13 04:37:07;;;;;;;;;;;;;;;19.73;58.40;101365.41;5094750;27;96633;-80
2021/09/13 04:39:33;;;;;;;;;;;;;;;19.85;57.90;101367.28;5080992;27;96834;-80
2021/09/13 04:42:00;;;;;;;;;;;;;;;19.69;58.59;101366.56;5080722;27;99229;-80
2021/09/13 04:44:26;;;;;;;;;;;;;;;19.84;58.14;101369.13;5075809;27;97686;-79
2021/09/13 04:46:52;;;;;;;;;;;;;;;19.76;58.25;101370.56;5080871;27;97854;-79
2021/09/13 04:49:24;;;;;;;;;;;;;;;19.85;57.88;101380.72;5082357;27;96733;-80
2021/09/13 04:51:50;;;;;;;;;;;;;;;20.03;57.20;101375.97;5078462;27;99219;-80
2021/09/13 04:54:16;;;;;;;;;;;;;;;20.14;57.13;101385.06;5078508;27;99058;-80
2021/09/13 04:56:43;;;;;;;;;;;;;;;20.14;56.77;101384.19;5078795;27;97011;-80
2021/09/13 04:59:10;;;;;;;;;;;;;;;19.63;58.22;101373.16;5079521;27;97203;-79
2021/09/13 05:01:36;;;;;;;;;;;;;;;19.80;57.57;101380.16;5079598;27;100248;-80
2021/09/13 05:04:03;;;;;;;;;;;;;;;20.06;57.00;101384.69;5078280;27;97859;-80
2021/09/13 05:06:31;;;;;;;;;;;;;;;20.20;56.44;101376.63;5080595;27;97129;-79
2021/09/13 05:08:57;;;;;;;;;;;;;;;19.77;57.54;101375.81;5081018;27;97252;-80
2021/09/13 05:11:23;;;;;;;;;;;;;;;19.80;57.26;101385.50;5078675;27;101108;-80
2021/09/13 05:13:51;;;;;;;;;;;;;;;19.98;56.96;101381.63;5079022;27;99253;-80
2021/09/13 05:16:17;;;;;;;;;;;;;;;20.40;55.87;101382.53;5081201;27;96781;-80
2021/09/13 05:18:45;;;;;;;;;;;;;;;20.44;55.67;101384.03;5079836;27;96743;-80
2021/09/13 05:21:11;;;;;;;;;;;;;;;20.44;55.37;101381.34;5080441;27;99005;-80
2021/09/13 05:23:39;;;;;;;;;;;;;;;20.52;55.35;101384.38;5077239;27;101055;-81
2021/09/13 05:26:06;;;;;;;;;;;;;;;20.52;55.43;101385.25;5081602;27;96777;-81
2021/09/13 05:28:32;;;;;;;;;;;;;;;20.56;55.58;101383.19;5077956;27;96985;-80
2021/09/13 05:30:58;;;;;;;;;;;;;;;20.35;55.67;101384.66;5067907;27;98065;-80
2021/09/13 05:33:25;;;;;;;;;;;;;;;20.30;55.75;101387.59;5084496;27;96769;-82
2021/09/13 05:35:51;;;;;;;;;;;;;;;20.37;55.75;101382.72;5083430;27;96767;-82
2021/09/13 05:38:18;;;;;;;;;;;;;;;20.36;55.83;101380.97;5082245;27;96703;-81
2021/09/13 05:40:45;;;;;;;;;;;;;;;20.69;54.94;101384.97;5079518;27;99859;-82
2021/09/13 05:43:12;;;;;;;;;;;;;;;20.70;54.77;101385.81;5080413;27;98096;-81
2021/09/13 05:45:39;;;;;;;;;;;;;;;21.03;53.64;101382.66;5081704;27;97133;-81
2021/09/13 05:48:06;;;;;;;;;;;;;;;20.96;53.88;101382.22;5078817;27;97646;-82
2021/09/13 05:50:32;;;;;;;;;;;;;;;20.92;53.83;101385.22;5080050;27;102284;-80
2021/09/13 05:52:59;;;;;;;;;;;;;;;20.64;55.02;101386.25;5078242;27;98764;-81
2021/09/13 05:55:27;;;;;;;;;;;;;;;20.89;54.11;101388.97;5074852;27;98226;-81
2021/09/13 05:57:55;;;;;;;;;;;;;;;20.86;54.23;101394.56;5077197;27;96861;-81
2021/09/13 06:00:21;;;;;;;;;;;;;;;20.28;55.54;101390.38;5069938;27;98911;-80
2021/09/13 06:02:47;;;;;;;;;;;;;;;20.68;55.25;101390.44;5066479;27;99151;-81
2021/09/13 06:05:14;;;;;;;;;;;;;;;20.85;54.64;101384.78;5070787;27;97426;-80
2021/09/13 06:07:40;;;;;;;;;;;;;;;20.51;55.20;101380.84;5072094;27;97371;-81
2021/09/13 06:10:07;;;;;;;;;;;;;;;21.05;53.93;101384.28;5070729;27;99303;-80
2021/09/13 06:12:38;;;;;;;;;;;;;;;21.32;53.14;101373.47;5076095;27;97895;-81
2021/09/13 06:15:06;;;;;;;;;;;;;;;21.54;52.38;101382.69;5073588;27;96889;-80
2021/09/13 06:17:33;;;;;;;;;;;;;;;21.59;52.26;101384.09;5072416;27;96984;-80
2021/09/13 06:19:59;;;;;;;;;;;;;;;21.36;53.18;101379.47;5070921;27;98889;-80
2021/09/13 06:22:26;;;;;;;;;;;;;;;21.61;52.38;101384.84;5077884;27;97898;-80
2021/09/13 06:24:52;;;;;;;;;;;;;;;21.80;51.79;101390.59;5072430;27;96784;-79
2021/09/13 06:27:19;;;;;;;;;;;;;;;21.85;51.67;101383.09;5075972;27;96801;-81
2021/09/13 06:29:45;;;;;;;;;;;;;;;21.61;52.23;101384.84;5072026;27;98114;-83
2021/09/13 06:32:13;;;;;;;;;;;;;;;21.61;52.33;101389.34;5072215;27;96824;-78
2021/09/13 06:34:41;;;;;;;;;;;;;;;21.71;51.95;101395.81;5073970;27;96812;-80
2021/09/13 06:37:07;;;;;;;;;;;;;;;21.92;51.56;101394.25;5070322;27;96859;-81
2021/09/13 06:39:34;;;;;;;;;;;;;;;21.62;52.42;101396.44;5069240;27;98240;-81
2021/09/13 06:42:00;;;;;;;;;;;;;;;21.98;51.32;101406.44;5072053;27;97790;-80
2021/09/13 06:47:09;;;;;;;;;;;;;;;22.27;50.60;101407.84;5063589;27;96984;-82
2021/09/13 06:49:38;;;;;;;;;;;;;;;22.42;49.92;101414.78;5069603;27;98165;-81
2021/09/13 06:52:05;;;;;;;;;;;;;;;22.36;50.17;101415.25;5068841;27;98087;-80
2021/09/13 06:54:32;;;;;;;;;;;;;;;22.49;49.95;101420.56;5085144;27;96727;-79
2021/09/13 06:56:58;;;;;;;;;;;;;;;22.56;49.73;101408.38;5074959;27;98520;-81
2021/09/13 06:59:24;;;;;;;;;;;;;;;22.51;49.77;101424.84;5072247;27;98981;-80
2021/09/13 07:01:51;;;;;;;;;;;;;;;22.21;50.12;101419.94;5072755;27;98809;-80
2021/09/13 07:04:17;;;;;;;;;;;;;;;22.42;49.99;101422.88;5072907;27;96934;-82
2021/09/13 07:06:45;;;;;;;;;;;;;;;22.40;49.25;101424.81;5079429;27;96707;-80
2021/09/13 07:09:12;;;;;;;;;;;;;;;21.39;51.20;101422.28;5076007;27;99269;-80
2021/09/13 07:11:38;;;;;;;;;;;;;;;21.31;52.16;101430.88;5072623;27;101284;-80
2021/09/13 07:14:05;;;;;;;;;;;;;;;22.16;50.08;101427.47;5071697;27;96938;-80
2021/09/13 07:16:32;;;;;;;;;;;;;;;21.93;50.22;101428.25;5068977;27;97343;-79
2021/09/13 07:19:00;;;;;;;;;;;;;;;21.69;51.21;101420.13;5075133;27;98091;-79
2021/09/13 07:21:26;;;;;;;;;;;;;;;22.12;49.79;101428.66;5088823;27;99697;-79
2021/09/13 07:23:54;;;;;;;;;;;;;;;22.26;49.55;101425.81;5072120;27;96776;-80
2021/09/13 07:26:20;;;;;;;;;;;;;;;22.51;48.59;101434.78;5077459;27;97231;-79
2021/09/13 07:28:47;;;;;;;;;;;;;;;22.69;47.97;101433.41;5077527;27;98095;-79
2021/09/13 07:31:13;;;;;;;;;;;;;;;22.73;47.70;101428.66;5079976;27;98449;-80
2021/09/13 07:33:39;;;;;;;;;;;;;;;22.77;47.09;101433.72;5082767;27;96844;-80
2021/09/13 07:36:06;;;;;;;;;;;;;;;21.91;49.87;101443.66;5074744;27;96856;-80
2021/09/13 07:38:32;;;;;;;;;;;;;;;22.53;48.38;101449.00;5077477;27;98704;-78
2021/09/13 07:41:00;;;;;;;;;;;;;;;22.35;48.58;101439.59;5079267;27;98614;-79
2021/09/13 07:43:26;;;;;;;;;;;;;;;22.78;47.53;101434.56;5066151;27;97758;-79
2021/09/13 07:45:53;;;;;;;;;;;;;;;23.36;45.69;101431.81;5070270;27;97975;-81
2021/09/13 07:48:22;;;;;;;;;;;;;;;23.89;44.75;101437.53;5073276;27;98803;-82
2021/09/13 07:50:49;;;;;;;;;;;;;;;23.90;44.82;101439.22;5071392;27;99545;-80
2021/09/13 07:53:16;;;;;;;;;;;;;;;24.09;44.19;101444.84;5065886;27;96887;-80
2021/09/13 07:55:42;;;;;;;;;;;;;;;23.82;44.93;101453.38;5070126;27;98616;-79
2021/09/13 07:58:12;;;;;;;;;;;;;;;23.16;45.84;101451.38;5068199;27;98234;-79
2021/09/13 08:00:38;;;;;;;;;;;;;;;23.07;46.26;101459.31;5070816;27;98815;-80
2021/09/13 08:03:05;;;;;;;;;;;;;;;22.92;46.67;101459.50;5063522;27;97198;-80
2021/09/13 08:05:32;;;;;;;;;;;;;;;23.27;46.00;101461.34;5072825;27;97510;-80
2021/09/13 08:07:58;;;;;;;;;;;;;;;23.52;45.19;101473.78;5070778;27;99308;-79
2021/09/13 08:10:26;;;;;;;;;;;;;;;23.75;45.48;101462.06;5080950;27;99116;-83
2021/09/13 08:12:53;;;;;;;;;;;;;;;23.84;44.95;101466.72;5075778;27;96780;-83
2021/09/13 08:15:23;;;;;;;;;;;;;;;23.77;45.12;101468.19;5092887;27;96837;-79
2021/09/13 08:17:49;;;;;;;;;;;;;;;23.57;45.23;101464.34;5075465;27;98286;-80
2021/09/13 08:20:16;;;;;;;;;;;;;;;24.13;43.93;101467.94;5067677;27;99022;-79
2021/09/13 08:22:42;;;;;;;;;;;;;;;23.89;44.07;101475.31;5069574;27;96856;-80
2021/09/13 08:25:09;;;;;;;;;;;;;;;23.82;44.54;101461.47;5068619;27;96860;-79
2021/09/13 08:27:35;;;;;;;;;;;;;;;24.01;44.13;101468.09;5072065;27;98840;-80
2021/09/13 08:32:44;;;;;;;;;;;;;;;23.93;44.00;101470.53;5074436;27;97425;-80
2021/09/13 08:35:11;;;;;;;;;;;;;;;23.84;43.80;101477.50;5069958;27;97571;-80
2021/09/13 08:37:37;;;;;;;;;;;;;;;24.09;43.58;101477.25;5076558;27;98198;-80
2021/09/13 08:40:07;;;;;;;;;;;;;;;24.27;43.61;101480.38;5079182;27;101012;-79
2021/09/13 08:42:34;;;;;;;;;;;;;;;24.77;42.64;101496.94;5079447;27;96955;-80
2021/09/13 08:45:03;;;;;;;;;;;;;;;24.21;43.66;101491.66;5087655;27;96875;-79
2021/09/13 08:50:25;;;;;;;;;;;;;;;24.70;42.67;101491.19;5085961;27;98924;-78
2021/09/13 08:52:52;;;;;;;;;;;;;;;24.97;42.27;101496.16;5077908;27;96697;-80
2021/09/13 08:55:21;;;;;;;;;;;;;;;24.76;42.92;101496.06;5070977;27;96820;-80
2021/09/13 08:57:50;;;;;;;;;;;;;;;24.65;42.83;101496.13;5078699;27;99267;-82
2021/09/13 09:00:19;;;;;;;;;;;;;;;24.18;43.32;101498.13;5075195;27;98748;-79
2021/09/13 09:02:46;;;;;;;;;;;;;;;23.69;44.90;101500.31;5082132;27;97832;-79
2021/09/13 09:05:14;;;;;;;;;;;;;;;24.66;43.39;101502.38;5088161;27;96862;-80
2021/09/13 09:07:48;;;;;;;;;;;;;;;24.34;44.31;101505.03;5085183;27;97019;-81
2021/09/13 09:10:18;;;;;;;;;;;;;;;24.94;42.62;101509.97;5087636;27;100439;-78
2021/09/13 09:13:02;;;;;;;;;;;;;;;24.92;42.07;101520.91;5086196;27;96715;-79
2021/09/13 09:15:29;;;;;;;;;;;;;;;24.73;43.31;101504.47;5092112;27;97215;-79
2021/09/13 09:17:56;;;;;;;;;;;;;;;24.36;44.13;101509.31;5091094;27;100280;-78
2021/09/13 09:20:24;;;;;;;;;;;;;;;25.04;42.62;101512.72;5090694;27;98255;-80
2021/09/13 09:23:01;;;;;;;;;;;;;;;25.50;41.58;101515.94;5096493;27;96612;-79
2021/09/13 09:25:29;;;;;;;;;;;;;;;25.88;41.08;101509.94;5102191;27;96695;-79
2021/09/13 09:27:56;;;;;;;;;;;;;;;26.04;40.94;101515.72;5098853;27;98560;-81
2021/09/13 09:30:23;;;;;;;;;;;;;;;24.88;43.07;101519.38;5089807;27;96769;-82
2021/09/13 09:33:01;;;;;;;;;;;;;;;24.86;43.41;101525.91;5071988;27;96712;-81
2021/09/13 09:35:28;;;;;;;;;;;;;;;25.23;42.67;101524.56;5082864;27;96821;-83
2021/09/13 09:37:55;;;;;;;;;;;;;;;24.48;44.41;101523.69;5078399;27;98881;-80
2021/09/13 09:40:28;;;;;;;;;;;;;;;23.57;46.94;101523.69;5078412;27;98105;-82
2021/09/13 09:42:55;;;;;;;;;;;;;;;23.65;46.73;101525.81;5069986;27;98783;-81
2021/09/13 09:45:25;;;;;;;;;;;;;;;24.30;45.62;101525.16;5071677;27;97911;-80
2021/09/13 09:48:04;;;;;;;;;;;;;;;24.40;45.24;101523.44;5071345;27;102355;-81
2021/09/13 09:50:33;;;;;;;;;;;;;;;24.62;44.95;101528.78;5068380;27;102090;-81
2021/09/13 09:53:13;;;;;;;;;;;;;;;24.64;44.87;101532.22;5075591;27;97392;-80
2021/09/13 09:55:40;;;;;;;;;;;;;;;25.28;43.70;101538.56;5090412;27;96668;-80
2021/09/13 09:58:09;;;;;;;;;;;;;;;25.30;43.20;101536.59;5089265;27;96900;-80
2021/09/13 10:00:37;;;;;;;;;;;;;;;24.78;44.67;101540.06;5089700;27;98562;-77
2021/09/13 10:03:05;;;;;;;;;;;;;;;24.06;47.08;101533.34;5093136;27;97839;-80
2021/09/13 10:05:41;;;;;;;;;;;;;;;23.97;47.36;101536.78;5095187;27;96065;-80
2021/09/13 10:08:08;;;;;;;;;;;;;;;24.21;46.74;101538.44;5093175;27;98203;-80
2021/09/13 10:10:35;;;;;;;;;;;;;;;24.28;46.36;101535.25;5096512;27;97807;-80
2021/09/13 10:13:03;;;;;;;;;;;;;;;24.21;46.65;101534.88;5095283;27;96393;-79
2021/09/13 10:15:29;;;;;;;;;;;;;;;24.03;46.93;101534.44;5097920;27;96032;-78
2021/09/13 10:17:59;;;;;;;;;;;;;;;23.97;47.28;101537.63;5093590;27;99665;-79
2021/09/13 10:20:26;;;;;;;;;;;;;;;24.35;45.80;101540.00;5104209;27;99652;-78
2021/09/13 10:22:56;;;;;;;;;;;;;;;24.32;45.57;101534.00;5094208;27;97029;-79
2021/09/13 10:25:24;;;;;;;;;;;;;;;24.57;44.93;101545.38;5093723;27;96331;-79
2021/09/13 10:27:58;;;;;;;;;;;;;;;23.60;46.88;101549.59;5091006;27;99935;-79
2021/09/13 10:30:25;;;;;;;;;;;;;;;23.51;47.33;101540.38;5089828;27;97911;-80
2021/09/13 10:32:54;;;;;;;;;;;;;;;23.18;47.92;101548.31;5094970;27;96477;-80
2021/09/13 10:35:24;;;;;;;;;;;;;;;24.08;45.96;101540.38;5090862;27;96568;-79
2021/09/13 10:37:51;;;;;;;;;;;;;;;24.58;44.75;101543.53;5086092;27;97903;-81
2021/09/13 10:40:25;;;;;;;;;;;;;;;24.55;44.90;101546.47;5079975;27;98039;-80
2021/09/13 10:42:53;;;;;;;;;;;;;;;24.29;44.72;101543.19;5082841;27;96942;-80
2021/09/13 10:45:21;;;;;;;;;;;;;;;24.39;44.80;101546.88;5085814;27;96818;-80
2021/09/13 10:47:48;;;;;;;;;;;;;;;24.60;44.56;101542.44;5083187;27;100610;-80
2021/09/13 10:50:22;;;;;;;;;;;;;;;24.85;43.80;101538.56;5077578;27;98831;-79
2021/09/13 10:52:51;;;;;;;;;;;;;;;24.54;44.51;101547.50;5073381;27;97046;-79
2021/09/13 10:55:18;;;;;;;;;;;;;;;24.03;45.65;101541.69;5075720;27;98631;-81
2021/09/13 10:57:59;;;;;;;;;;;;;;;24.32;45.48;101547.50;5086943;27;97398;-83
2021/09/13 11:00:45;;;;;;;;;;;;;;;24.39;45.31;101537.91;5085947;27;96645;-84
2021/09/13 11:03:31;;;;;;;;;;;;;;;24.65;44.38;101544.75;5080827;27;96939;-81
2021/09/13 11:06:02;;;;;;;;;;;;;;;25.00;44.07;101548.16;5077478;27;97175;-83
2021/09/13 11:08:29;;;;;;;;;;;;;;;24.12;46.01;101554.47;5071978;27;100414;-82
2021/09/13 11:10:56;;;;;;;;;;;;;;;24.44;45.79;101557.31;5068168;27;99748;-83
2021/09/13 11:13:24;;;;;;;;;;;;;;;24.75;44.68;101555.66;5075091;27;97187;-81
2021/09/13 11:15:51;;;;;;;;;;;;;;;25.10;44.11;101558.19;5076550;27;96862;-82
2021/09/13 11:18:30;;;;;;;;;;;;;;;25.43;43.51;101558.03;5074923;27;98317;-81
2021/09/13 11:21:12;;;;;;;;;;;;;;;24.93;44.81;101554.19;5073854;27;98022;-83
2021/09/13 11:23:38;;;;;;;;;;;;;;;25.39;44.08;101552.06;5072189;27;97007;-82
2021/09/13 11:26:05;;;;;;;;;;;;;;;25.42;42.58;101548.22;5073140;27;98627;-83
2021/09/13 11:28:32;;;;;;;;;;;;;;;25.23;43.16;101550.75;5069406;27;98790;-82
2021/09/13 11:30:59;;;;;;;;;;;;;;;25.58;42.86;101555.91;5077698;27;98147;-82
2021/09/13 11:33:30;;;;;;;;;;;;;;;25.77;41.77;101556.91;5072780;27;96802;-81
2021/09/13 11:41:55;;;;;;;;;;;;;;;24.91;43.68;101557.03;5099606;27;95901;-82
2021/09/13 11:44:21;;;;;;;;;;;;;;;25.25;43.06;101560.47;5078809;27;97443;-82
2021/09/13 11:46:52;;;;;;;;;;;;;;;26.23;41.23;101550.16;5079486;27;99358;-81
2021/09/13 11:49:20;;;;;;;;;;;;;;;26.09;41.25;101558.66;5038097;22;98335;-81
2021/09/13 11:52:02;;;;;;;;;;;;;;;26.65;40.29;101553.59;5015234;28;96841;-81
2021/09/13 11:54:29;;;;;;;;;;;;;;;26.58;39.80;101553.31;5008528;28;98148;-81
2021/09/13 11:56:56;;;;;;;;;;;;;;;26.65;39.12;101559.03;5006948;28;99004;-82
2021/09/13 11:59:23;;;;;;;;;;;;;;;26.48;38.89;101552.44;5010058;28;97859;-82
2021/09/13 12:01:57;;;;;;;;;;;;;;;26.47;39.12;101552.56;5009002;28;97359;-81
2021/09/13 12:04:23;;;;;;;;;;;;;;;26.78;38.71;101553.38;5009896;28;97707;-81
2021/09/13 12:07:04;;;;;;;;;;;;;;;26.95;38.69;101550.88;5015875;28;101078;-80
2021/09/13 12:09:32;;;;;;;;;;;;;;;26.68;39.55;101550.63;5011142;28;98200;-81
2021/09/13 12:12:01;;;;;;;;;;;;;;;25.86;41.13;101557.97;5015706;28;98510;-81
2021/09/13 12:14:27;;;;;;;;;;;;;;;26.16;40.63;101557.13;5018353;28;97567;-81
2021/09/13 12:17:09;;;;;;;;;;;;;;;26.42;40.12;101552.97;5009481;28;98940;-81
2021/09/13 12:19:36;;;;;;;;;;;;;;;24.79;43.58;101558.00;5014035;28;99267;-82
2021/09/13 12:22:06;;;;;;;;;;;;;;;24.87;43.32;101554.66;5016921;28;98748;-86
2021/09/13 12:24:33;;;;;;;;;;;;;;;23.91;45.45;101558.84;5014782;28;97417;-82
2021/09/13 12:27:15;;;;;;;;;;;;;;;24.36;44.87;101548.97;5017121;28;99023;-84
2021/09/13 12:29:52;;;;;;;;;;;;;;;24.45;44.75;101551.78;5008299;28;100910;-81
2021/09/13 12:32:22;;;;;;;;;;;;;;;25.21;43.15;101553.59;5009387;28;96840;-82
2021/09/13 12:34:55;;;;;;;;;;;;;;;25.04;43.01;101553.28;5010971;28;97397;-81
2021/09/13 12:37:26;;;;;;;;;;;;;;;24.54;44.63;101559.16;5007284;28;99810;-81
2021/09/13 12:40:02;;;;;;;;;;;;;;;24.56;44.92;101553.59;5014214;28;98217;-82
2021/09/13 12:42:48;;;;;;;;;;;;;;;24.95;44.40;101552.19;5009761;28;99358;-82
2021/09/13 12:45:16;;;;;;;;;;;;;;;24.99;44.01;101548.28;5007445;28;97005;-82
2021/09/13 12:47:49;;;;;;;;;;;;;;;24.91;44.24;101558.88;5012208;28;100202;-82
2021/09/13 12:58:39;;;;;;;;;;;;;;;24.70;43.38;101552.47;5102873;22;100291;-82
2021/09/13 13:01:08;;;;;;;;;;;;;;;25.34;42.60;101554.25;4963512;28;96694;-80
2021/09/13 13:03:36;;;;;;;;;;;;;;;24.99;42.72;101549.13;4954502;28;96919;-81
2021/09/13 13:06:13;;;;;;;;;;;;;;;24.66;43.74;101543.78;4958458;28;98105;-82
2021/09/13 13:08:40;;;;;;;;;;;;;;;25.27;42.65;101539.53;4956869;28;97998;-83
2021/09/13 13:11:10;;;;;;;;;;;;;;;25.31;42.91;101540.16;4966251;28;101264;-82
2021/09/13 13:13:39;;;;;;;;;;;;;;;25.27;42.71;101536.84;4946764;28;97828;-81